createdAt,value
2022-11-16T00:01:45.581Z,15.48
2022-11-16T00:04:15.465Z,10.80
2022-11-16T00:06:42.382Z,16.92
2022-11-16T00:09:24.114Z,16.75
2022-11-16T00:12:02.748Z,18.20
2022-11-16T00:14:32.248Z,13.60
2022-11-16T00:16:59.983Z,11.20
2022-11-16T00:19:27.471Z,10.63
2022-11-16T00:21:54.623Z,10.25
2022-11-16T00:24:23.432Z,10.55
2022-11-16T00:26:50.709Z,15.85
2022-11-16T00:29:20.258Z,11.20
2022-11-16T00:31:47.709Z,8.77
2022-11-16T00:34:14.897Z,9.75
2022-11-16T00:36:42.023Z,11.55
2022-11-16T00:39:11.870Z,9.73
2022-11-16T00:41:38.754Z,11.10
2022-11-16T00:44:05.989Z,16.08
2022-11-16T00:46:32.883Z,13.88
2022-11-16T00:48:59.626Z,16.70
2022-11-16T00:51:26.721Z,10.20
2022-11-16T00:53:53.654Z,25.33
2022-11-16T00:56:21.332Z,12.65
2022-11-16T00:58:48.113Z,7.88
2022-11-16T01:01:15.675Z,9.02
2022-11-16T01:03:42.966Z,7.90
2022-11-16T01:06:11.633Z,8.57
2022-11-16T01:08:39.708Z,8.05
2022-11-16T01:11:30.895Z,10.20
2022-11-16T01:13:58.712Z,10.13
2022-11-16T01:16:25.463Z,11.88
2022-11-16T01:18:54.639Z,9.23
2022-11-16T01:21:22.691Z,8.80
2022-11-16T01:23:49.865Z,7.13
2022-11-16T01:26:16.796Z,9.50
2022-11-16T01:28:44.137Z,11.15
2022-11-16T01:31:15.541Z,9.13
2022-11-16T01:33:42.438Z,11.35
2022-11-16T01:36:17.509Z,9.45
2022-11-16T01:38:46.645Z,9.07
2022-11-16T01:41:18.568Z,10.57
2022-11-16T01:44:00.233Z,7.57
2022-11-16T01:46:33.136Z,10.82
2022-11-16T01:49:14.471Z,12.35
2022-11-16T01:51:45.148Z,13.68
2022-11-16T01:54:14.218Z,9.50
2022-11-16T01:56:54.146Z,19.23
2022-11-16T01:59:32.048Z,15.13
2022-11-16T02:02:01.283Z,13.75
2022-11-16T02:04:29.905Z,14.57
2022-11-16T02:07:19.572Z,16.15
2022-11-16T02:09:53.742Z,9.90
2022-11-16T02:12:57.802Z,15.55
2022-11-16T02:15:33.538Z,9.75
2022-11-16T02:18:53.209Z,9.35
2022-11-16T02:21:45.002Z,11.23
2022-11-16T02:24:42.324Z,10.63
2022-11-16T02:27:23.636Z,10.77
2022-11-16T02:29:52.795Z,6.97
2022-11-16T02:32:30.396Z,9.00
2022-11-16T02:35:12.301Z,11.52
2022-11-16T02:37:50.631Z,10.32
2022-11-16T02:40:20.894Z,12.25
2022-11-16T02:43:07.397Z,7.72
2022-11-16T02:45:40.614Z,11.07
2022-11-16T02:48:24.675Z,10.80
2022-11-16T02:50:53.440Z,8.55
2022-11-16T02:53:22.083Z,12.43
2022-11-16T02:55:49.036Z,13.73
2022-11-16T02:58:20.833Z,10.90
2022-11-16T03:01:18.333Z,7.90
2022-11-16T03:04:01.621Z,10.15
2022-11-16T03:06:31.568Z,10.00
2022-11-16T03:08:59.008Z,7.60
2022-11-16T03:11:48.926Z,6.85
2022-11-16T03:14:20.626Z,7.22
2022-11-16T03:16:52.966Z,9.25
2022-11-16T03:19:34.004Z,7.38
2022-11-16T03:22:09.847Z,8.35
2022-11-16T03:24:39.158Z,11.50
2022-11-16T03:27:29.366Z,10.60
2022-11-16T03:30:04.928Z,8.73
2022-11-16T03:32:56.589Z,6.78
2022-11-16T03:36:01.934Z,6.97
2022-11-16T03:38:33.601Z,5.45
2022-11-16T03:41:08.474Z,6.18
2022-11-16T03:43:38.098Z,6.55
2022-11-16T03:46:05.846Z,6.78
2022-11-16T03:48:39.209Z,4.50
2022-11-16T03:51:13.264Z,5.13
2022-11-16T03:53:40.775Z,7.35
2022-11-16T03:56:09.385Z,6.47
2022-11-16T03:58:37.777Z,7.90
2022-11-16T04:01:04.776Z,8.50
2022-11-16T04:03:32.117Z,6.07
2022-11-16T04:06:17.793Z,10.65
2022-11-16T04:09:03.281Z,6.30
2022-11-16T04:11:48.789Z,6.00
2022-11-16T04:14:44.739Z,6.88
2022-11-16T04:17:34.984Z,8.13
2022-11-16T04:20:21.066Z,6.50
2022-11-16T04:23:21.960Z,4.20
2022-11-16T04:25:51.197Z,4.50
2022-11-16T04:28:24.291Z,6.15
2022-11-16T04:31:32.943Z,3.95
2022-11-16T04:34:24.822Z,6.03
2022-11-16T04:37:13.831Z,5.63
2022-11-16T04:39:41.250Z,6.30
2022-11-16T04:42:17.474Z,6.35
2022-11-16T04:45:05.042Z,5.90
2022-11-16T04:47:49.148Z,8.35
2022-11-16T04:50:17.664Z,7.80
2022-11-16T04:52:44.389Z,7.20
2022-11-16T04:55:13.535Z,8.38
2022-11-16T04:57:40.562Z,7.72
2022-11-16T05:00:09.071Z,11.60
2022-11-16T05:02:37.580Z,8.32
2022-11-16T05:05:04.890Z,9.02
2022-11-16T05:07:32.713Z,8.85
2022-11-16T05:10:06.846Z,8.18
2022-11-16T05:12:34.685Z,6.78
2022-11-16T05:15:05.900Z,9.05
2022-11-16T05:17:34.096Z,7.53
2022-11-16T05:20:40.483Z,9.20
2022-11-16T05:23:28.166Z,7.35
2022-11-16T05:25:56.864Z,5.57
2022-11-16T05:28:23.590Z,6.85
2022-11-16T05:30:51.252Z,6.35
2022-11-16T05:33:22.228Z,9.15
2022-11-16T05:35:51.646Z,6.78
2022-11-16T05:38:21.390Z,8.05
2022-11-16T05:40:52.173Z,8.55
2022-11-16T05:43:19.005Z,8.70
2022-11-16T05:45:56.286Z,8.77
2022-11-16T05:48:23.287Z,8.95
2022-11-16T05:50:50.141Z,6.53
2022-11-16T05:53:24.829Z,6.38
2022-11-16T05:55:52.093Z,7.40
2022-11-16T05:58:20.249Z,6.82
2022-11-16T06:00:48.940Z,7.15
2022-11-16T06:03:17.625Z,9.18
2022-11-16T06:05:44.549Z,8.65
2022-11-16T06:08:13.983Z,7.63
2022-11-16T06:10:41.395Z,10.07
2022-11-16T06:13:08.386Z,9.38
2022-11-16T06:15:38.262Z,8.73
2022-11-16T06:18:06.755Z,9.00
2022-11-16T06:20:34.784Z,9.40
2022-11-16T06:23:03.517Z,10.10
2022-11-16T06:25:33.790Z,8.02
2022-11-16T06:28:04.100Z,7.50
2022-11-16T06:30:34.512Z,7.43
2022-11-16T06:33:02.739Z,6.90
2022-11-16T06:35:29.924Z,9.02
2022-11-16T06:37:58.030Z,6.57
2022-11-16T06:40:26.212Z,9.45
2022-11-16T06:42:53.426Z,6.82
2022-11-16T06:45:20.841Z,7.03
2022-11-16T06:50:19.410Z,8.20
2022-11-16T06:52:48.577Z,5.70
2022-11-16T06:55:16.926Z,5.95
2022-11-16T06:57:44.058Z,5.03
2022-11-16T07:00:12.843Z,4.55
2022-11-16T07:02:40.519Z,4.35
2022-11-16T07:05:10.996Z,7.30
2022-11-16T07:07:39.447Z,5.65
2022-11-16T07:10:06.568Z,5.30
2022-11-16T07:12:33.464Z,3.13
2022-11-16T07:15:01.654Z,3.33
2022-11-16T07:17:31.317Z,3.90
2022-11-16T07:19:58.190Z,4.15
2022-11-16T07:22:25.506Z,5.20
2022-11-16T07:24:53.546Z,3.83
2022-11-16T07:27:21.299Z,4.47
2022-11-16T07:29:50.628Z,3.92
2022-11-16T07:32:39.929Z,5.70
2022-11-16T07:35:15.559Z,4.13
2022-11-16T07:37:42.639Z,5.88
2022-11-16T07:40:10.765Z,4.22
2022-11-16T07:42:38.802Z,3.72
2022-11-16T07:45:29.041Z,4.88
2022-11-16T07:48:05.428Z,3.72
2022-11-16T07:50:50.839Z,4.22
2022-11-16T07:53:19.220Z,4.45
2022-11-16T07:55:53.043Z,6.38
2022-11-16T07:58:21.668Z,4.07
2022-11-16T08:00:49.395Z,4.65
2022-11-16T08:03:21.799Z,5.78
2022-11-16T08:06:21.264Z,4.80
2022-11-16T08:08:48.312Z,5.85
2022-11-16T08:11:17.641Z,4.90
2022-11-16T08:13:44.906Z,6.32
2022-11-16T08:16:18.207Z,6.50
2022-11-16T08:18:47.239Z,5.70
2022-11-16T08:21:17.205Z,8.38
2022-11-16T08:23:45.485Z,5.30
2022-11-16T08:26:15.912Z,6.25
2022-11-16T08:28:48.491Z,5.53
2022-11-16T08:31:18.323Z,4.32
2022-11-16T08:33:50.491Z,6.63
2022-11-16T08:36:17.865Z,4.47
2022-11-16T08:38:50.421Z,4.80
2022-11-16T08:41:20.501Z,7.07
2022-11-16T08:43:47.838Z,9.80
2022-11-16T08:46:15.532Z,6.15
2022-11-16T08:48:44.624Z,6.10
2022-11-16T08:51:19.278Z,8.02
2022-11-16T08:53:57.502Z,7.03
2022-11-16T08:56:30.225Z,6.18
2022-11-16T08:58:59.167Z,6.05
2022-11-16T09:01:29.521Z,7.53
2022-11-16T09:03:56.646Z,6.35
2022-11-16T09:06:25.815Z,6.18
2022-11-16T09:08:53.321Z,6.68
2022-11-16T09:11:22.659Z,6.53
2022-11-16T09:13:51.600Z,6.32
2022-11-16T09:16:21.032Z,10.25
2022-11-16T09:18:50.073Z,6.93
2022-11-16T09:21:19.123Z,5.45
2022-11-16T09:23:47.108Z,5.63
2022-11-16T09:26:14.493Z,3.90
2022-11-16T09:28:41.377Z,7.95
2022-11-16T09:31:10.086Z,7.80
2022-11-16T09:33:37.065Z,7.93
2022-11-16T09:36:09.163Z,6.72
2022-11-16T09:39:13.324Z,6.63
2022-11-16T09:41:52.300Z,6.97
2022-11-16T09:44:52.877Z,5.03
2022-11-16T09:47:22.650Z,7.28
2022-11-16T09:49:58.186Z,11.45
2022-11-16T09:52:30.445Z,9.55
2022-11-16T09:54:59.968Z,7.88
2022-11-16T09:57:37.249Z,7.30
2022-11-16T10:00:23.734Z,10.23
2022-11-16T10:03:04.093Z,10.02
2022-11-16T10:05:39.072Z,10.55
2022-11-16T10:08:25.156Z,4.95
2022-11-16T10:11:20.849Z,4.63
2022-11-16T10:16:32.859Z,7.25
2022-11-16T10:19:05.430Z,6.90
2022-11-16T10:21:33.159Z,4.38
2022-11-16T10:24:02.521Z,8.60
2022-11-16T10:26:50.631Z,9.20
2022-11-16T10:29:49.867Z,5.20
2022-11-16T10:32:21.168Z,5.70
2022-11-16T10:34:54.008Z,8.05
2022-11-16T10:37:22.430Z,4.70
2022-11-16T10:39:53.355Z,6.38
2022-11-16T10:42:28.901Z,5.43
2022-11-16T10:45:08.158Z,7.82
2022-11-16T10:47:44.867Z,9.27
2022-11-16T10:50:32.631Z,6.47
2022-11-16T10:53:00.899Z,7.68
2022-11-16T10:55:30.593Z,5.70
2022-11-16T10:58:01.576Z,6.82
2022-11-16T11:00:33.788Z,6.60
2022-11-16T11:03:01.096Z,6.18
2022-11-16T11:05:27.941Z,6.57
2022-11-16T11:08:03.697Z,6.22
2022-11-16T11:10:35.652Z,5.80
2022-11-16T11:13:11.543Z,6.07
2022-11-16T11:15:39.945Z,4.43
2022-11-16T11:18:15.609Z,12.35
2022-11-16T11:20:46.158Z,9.45
2022-11-16T11:23:23.758Z,7.38
2022-11-16T11:25:56.566Z,7.60
2022-11-16T11:28:31.952Z,6.35
2022-11-16T11:31:01.306Z,5.43
2022-11-16T11:33:39.639Z,5.20
2022-11-16T11:36:13.343Z,9.48
2022-11-16T11:39:25.566Z,4.53
2022-11-16T11:42:10.796Z,7.85
2022-11-16T11:44:49.753Z,4.70
2022-11-16T11:47:56.608Z,8.25
2022-11-16T11:50:51.083Z,8.23
2022-11-16T11:53:29.936Z,9.77
2022-11-16T11:55:59.825Z,9.07
2022-11-16T11:58:31.122Z,10.05
2022-11-16T12:01:01.035Z,6.45
2022-11-16T12:03:28.048Z,8.02
2022-11-16T12:06:07.758Z,8.05
2022-11-16T12:08:57.011Z,7.22
2022-11-16T12:11:38.110Z,9.65
2022-11-16T12:14:33.407Z,5.55
2022-11-16T12:17:13.482Z,8.45
2022-11-16T12:20:01.839Z,8.88
2022-11-16T12:22:46.830Z,8.57
2022-11-16T12:25:51.143Z,5.05
2022-11-16T12:28:51.318Z,4.55
2022-11-16T12:31:33.441Z,5.05
2022-11-16T12:34:06.122Z,6.80
2022-11-16T12:36:32.842Z,3.28
2022-11-16T12:39:24.476Z,4.10
2022-11-16T12:42:13.268Z,7.90
2022-11-16T12:44:45.892Z,3.25
2022-11-16T12:47:46.869Z,4.07
2022-11-16T12:50:28.870Z,5.15
2022-11-16T12:53:25.753Z,4.40
2022-11-16T12:56:13.986Z,3.95
2022-11-16T12:58:52.700Z,5.40
2022-11-16T13:01:25.704Z,6.75
2022-11-16T13:04:01.502Z,4.40
2022-11-16T13:06:34.796Z,3.17
2022-11-16T13:09:30.895Z,2.67
2022-11-16T13:12:03.380Z,3.70
2022-11-16T13:14:34.952Z,6.05
2022-11-16T13:17:04.253Z,4.88
2022-11-16T13:19:31.895Z,5.00
2022-11-16T13:22:19.497Z,3.17
2022-11-16T13:24:48.850Z,3.42
2022-11-16T13:27:18.285Z,6.95
2022-11-16T13:30:03.799Z,3.08
2022-11-16T13:32:53.341Z,2.58
2022-11-16T13:35:21.029Z,4.32
2022-11-16T13:37:49.251Z,5.97
2022-11-16T13:40:30.995Z,5.68
2022-11-16T13:43:16.858Z,3.08
2022-11-16T13:45:57.294Z,5.47
2022-11-16T13:48:38.519Z,5.25
2022-11-16T13:51:18.986Z,3.25
2022-11-16T13:56:51.050Z,5.13
2022-11-16T13:59:25.409Z,3.67
2022-11-16T14:02:22.713Z,3.58
2022-11-16T14:05:33.948Z,3.95
2022-11-16T14:08:20.840Z,2.42
2022-11-16T14:10:50.673Z,4.30
2022-11-16T14:13:47.366Z,4.90
2022-11-16T14:16:20.190Z,3.47
2022-11-16T14:18:59.026Z,3.80
2022-11-16T14:21:26.776Z,4.13
2022-11-16T14:24:06.230Z,3.97
2022-11-16T14:27:17.032Z,4.55
2022-11-16T14:30:02.962Z,4.25
2022-11-16T14:32:43.495Z,3.08
2022-11-16T14:35:29.675Z,2.78
2022-11-16T14:38:02.394Z,5.60
2022-11-16T14:40:29.494Z,5.50
2022-11-16T14:43:15.921Z,4.32
2022-11-16T14:45:48.251Z,3.25
2022-11-16T14:48:17.739Z,5.38
2022-11-16T14:50:57.899Z,3.72
2022-11-16T14:53:26.479Z,4.35
2022-11-16T14:56:06.452Z,3.08
2022-11-16T14:58:33.309Z,4.55
2022-11-16T15:01:02.940Z,4.97
2022-11-16T15:03:35.540Z,7.15
2022-11-16T15:06:04.793Z,8.40
2022-11-16T15:08:58.123Z,4.90
2022-11-16T15:11:50.198Z,4.00
2022-11-16T15:14:22.723Z,5.53
2022-11-16T15:16:54.472Z,5.68
2022-11-16T15:19:22.112Z,5.03
2022-11-16T15:21:58.211Z,7.93
2022-11-16T15:24:32.184Z,5.15
2022-11-16T15:27:08.525Z,5.47
2022-11-16T15:29:36.286Z,7.18
2022-11-16T15:32:03.412Z,7.00
2022-11-16T15:34:31.479Z,7.22
2022-11-16T15:36:58.302Z,5.35
2022-11-16T15:39:32.334Z,5.57
2022-11-16T15:42:03.717Z,4.82
2022-11-16T15:44:31.980Z,5.80
2022-11-16T15:46:59.505Z,6.20
2022-11-16T15:49:32.447Z,5.60
2022-11-16T15:52:00.139Z,8.93
2022-11-16T15:54:54.971Z,5.38
2022-11-16T15:57:24.049Z,6.65
2022-11-16T15:59:57.272Z,6.88
2022-11-16T16:02:29.914Z,8.82
2022-11-16T16:04:56.934Z,7.82
2022-11-16T16:07:41.855Z,6.90
2022-11-16T16:10:13.207Z,5.65
2022-11-16T16:13:00.646Z,7.50
2022-11-16T16:15:36.585Z,6.55
2022-11-16T16:18:13.963Z,4.30
2022-11-16T16:20:48.838Z,9.40
2022-11-16T16:23:16.448Z,5.30
2022-11-16T16:25:49.077Z,4.45
2022-11-16T16:28:17.407Z,10.38
2022-11-16T16:30:44.342Z,14.65
2022-11-16T16:33:19.654Z,10.00
2022-11-16T16:35:49.891Z,7.35
2022-11-16T16:38:17.213Z,8.82
2022-11-16T16:40:44.088Z,9.10
2022-11-16T16:43:11.087Z,8.35
2022-11-16T16:45:41.664Z,15.10
2022-11-16T16:48:09.707Z,10.60
2022-11-16T16:50:37.393Z,9.10
2022-11-16T16:53:05.021Z,11.90
2022-11-16T16:55:36.974Z,6.90
2022-11-16T16:58:04.976Z,9.95
2022-11-16T17:00:32.413Z,7.22
2022-11-16T17:02:59.497Z,8.68
2022-11-16T17:05:27.115Z,6.97
2022-11-16T17:07:56.926Z,9.77
2022-11-16T17:10:24.384Z,7.18
2022-11-16T17:12:55.282Z,9.75
2022-11-16T17:15:22.904Z,7.57
2022-11-16T17:17:50.485Z,5.30
2022-11-16T17:20:17.853Z,5.15
2022-11-16T17:22:45.289Z,4.28
2022-11-16T17:25:12.630Z,5.93
2022-11-16T17:27:39.500Z,6.10
2022-11-16T17:30:07.375Z,8.10
2022-11-16T17:32:34.807Z,6.72
2022-11-16T17:35:01.836Z,5.93
2022-11-16T17:37:28.790Z,11.90
2022-11-16T17:39:55.875Z,19.58
2022-11-16T17:42:23.116Z,18.90
2022-11-16T17:44:50.095Z,16.00
2022-11-16T17:47:17.109Z,14.52
2022-11-16T17:49:44.221Z,19.17
2022-11-16T17:52:11.309Z,14.80
2022-11-16T17:54:38.358Z,13.27
2022-11-16T17:57:05.437Z,12.98
2022-11-16T17:59:32.986Z,11.35
2022-11-16T18:01:59.832Z,15.60
2022-11-16T18:04:34.593Z,12.02
2022-11-16T18:07:01.807Z,8.75
2022-11-16T18:09:29.079Z,10.57
2022-11-16T18:11:56.180Z,14.48
2022-11-16T18:14:23.085Z,10.35
2022-11-16T18:16:50.161Z,13.02
2022-11-16T18:19:19.253Z,11.85
2022-11-16T18:21:46.835Z,13.00
2022-11-16T18:24:13.957Z,19.85
2022-11-16T18:26:41.458Z,22.02
2022-11-16T18:29:15.924Z,18.23
2022-11-16T18:31:43.485Z,15.38
2022-11-16T18:34:15.775Z,16.80
2022-11-16T18:36:43.803Z,11.65
2022-11-16T18:39:10.841Z,8.57
2022-11-16T18:41:43.936Z,10.52
2022-11-16T18:44:14.981Z,13.02
2022-11-16T18:46:43.366Z,14.93
2022-11-16T18:49:10.331Z,16.60
2022-11-16T18:51:37.141Z,19.85
2022-11-16T18:54:04.138Z,22.52
2022-11-16T18:56:31.102Z,21.45
2022-11-16T18:58:57.804Z,24.70
2022-11-16T19:01:26.763Z,23.65
2022-11-16T19:03:56.163Z,26.98
2022-11-16T19:06:24.052Z,22.08
2022-11-16T19:09:03.992Z,31.48
2022-11-16T19:11:31.216Z,24.63
2022-11-16T19:14:00.892Z,20.58
2022-11-16T19:16:28.372Z,19.38
2022-11-16T19:18:55.222Z,20.00
2022-11-16T19:21:22.945Z,21.85
2022-11-16T19:23:52.279Z,20.75
2022-11-16T19:26:21.084Z,21.17
2022-11-16T19:28:49.896Z,22.05
2022-11-16T19:31:23.553Z,25.25
2022-11-16T19:33:59.951Z,21.48
2022-11-16T19:36:28.568Z,18.33
2022-11-16T19:38:56.293Z,18.15
2022-11-16T19:41:24.110Z,17.98
2022-11-16T19:43:59.911Z,18.02
2022-11-16T19:46:33.170Z,25.48
2022-11-16T19:49:01.342Z,20.75
2022-11-16T19:51:30.306Z,16.42
2022-11-16T19:54:02.507Z,18.73
2022-11-16T19:56:34.414Z,17.98
2022-11-16T19:59:01.471Z,18.17
2022-11-16T20:01:33.003Z,17.60
2022-11-16T20:04:03.499Z,14.85
2022-11-16T20:09:23.628Z,14.57
2022-11-16T20:11:50.582Z,18.05
2022-11-16T20:14:17.897Z,14.60
2022-11-16T20:16:47.790Z,14.15
2022-11-16T20:19:15.887Z,13.10
2022-11-16T20:21:48.111Z,12.75
2022-11-16T20:24:16.541Z,11.10
2022-11-16T20:26:46.826Z,11.65
2022-11-16T20:29:17.677Z,12.05
2022-11-16T20:31:46.284Z,10.90
2022-11-16T20:34:16.603Z,15.10
2022-11-16T20:37:08.785Z,10.80
2022-11-16T20:39:36.298Z,14.30
2022-11-16T20:42:03.388Z,13.73
2022-11-16T20:44:31.487Z,16.80
2022-11-16T20:46:58.746Z,14.50
2022-11-16T20:49:26.279Z,16.02
2022-11-16T20:51:53.625Z,11.77
2022-11-16T20:54:21.603Z,12.52
2022-11-16T20:56:49.987Z,14.50
2022-11-16T20:59:17.444Z,14.23
2022-11-16T21:01:47.882Z,11.43
2022-11-16T21:04:16.117Z,12.10
2022-11-16T21:06:43.100Z,14.73
2022-11-16T21:09:23.037Z,15.40
2022-11-16T21:12:09.472Z,12.02
2022-11-16T21:14:37.528Z,10.85
2022-11-16T21:17:04.971Z,11.27
2022-11-16T21:19:32.857Z,11.52
2022-11-16T21:21:59.721Z,17.65
2022-11-16T21:24:28.637Z,12.73
2022-11-16T21:26:55.576Z,8.98
2022-11-16T21:29:26.120Z,9.93
2022-11-16T21:31:55.187Z,9.73
2022-11-16T21:34:24.696Z,15.63
2022-11-16T21:36:52.792Z,9.45
2022-11-16T21:39:19.584Z,15.25
2022-11-16T21:41:47.303Z,13.98
2022-11-16T21:44:14.158Z,17.52
2022-11-16T21:46:43.678Z,11.32
2022-11-16T21:49:11.053Z,8.50
2022-11-16T21:51:38.074Z,10.35
2022-11-16T21:54:06.709Z,9.13
2022-11-16T21:56:33.789Z,7.18
2022-11-16T21:59:01.707Z,9.27
2022-11-16T22:01:48.797Z,6.40
2022-11-16T22:04:51.552Z,7.05
2022-11-16T22:07:33.936Z,5.35
2022-11-16T22:10:02.047Z,6.65
2022-11-16T22:12:29.559Z,8.20
2022-11-16T22:14:59.002Z,9.85
2022-11-16T22:17:26.514Z,7.45
2022-11-16T22:19:53.897Z,5.30
2022-11-16T22:22:21.274Z,6.55
2022-11-16T22:24:48.471Z,9.65
2022-11-16T22:27:18.937Z,13.63
2022-11-16T22:29:47.041Z,11.10
2022-11-16T22:32:13.980Z,15.32
2022-11-16T22:34:41.020Z,8.73
2022-11-16T22:37:07.803Z,10.65
2022-11-16T22:39:34.907Z,7.55
2022-11-16T22:42:01.773Z,10.55
2022-11-16T22:44:30.312Z,8.52
2022-11-16T22:46:57.100Z,9.07
2022-11-16T22:49:49.008Z,7.10
2022-11-16T22:52:17.854Z,8.93
2022-11-16T22:54:44.685Z,6.30
2022-11-16T22:57:15.564Z,5.68
2022-11-16T22:59:43.394Z,6.45
2022-11-16T23:02:10.082Z,5.85
2022-11-16T23:04:37.108Z,7.15
2022-11-16T23:07:03.917Z,7.47
2022-11-16T23:09:32.848Z,9.20
2022-11-16T23:12:18.171Z,11.88
2022-11-16T23:15:03.971Z,9.90
2022-11-16T23:17:30.974Z,10.85
2022-11-16T23:20:17.764Z,13.02
2022-11-16T23:23:03.510Z,9.23
2022-11-16T23:25:48.776Z,10.00
2022-11-16T23:28:16.871Z,12.65
2022-11-16T23:30:43.914Z,13.13
2022-11-16T23:33:13.367Z,13.65
2022-11-16T23:35:40.161Z,11.50
2022-11-16T23:38:08.400Z,12.70
2022-11-16T23:40:39.891Z,13.52
2022-11-16T23:43:28.751Z,14.15
2022-11-16T23:45:55.731Z,16.85
2022-11-16T23:48:22.492Z,12.55
2022-11-16T23:50:50.188Z,10.30
2022-11-16T23:53:16.944Z,10.57
2022-11-16T23:55:43.959Z,10.13
2022-11-16T23:58:14.846Z,12.73
